Time;durP1;ratioP1;P1;durP2;ratioP2;P2;SDS_P1;SDS_P2;PMS_P1;PMS_P2;Temp;Humidity;BMP_temperature;BMP_pressure;BME280_temperature;BME280_humidity;BME280_pressure;Samples;Min_cycle;Max_cycle;Signal;HPM_P1;HPM_P2
2022/03/25 00:01:10;;;;;;;96.90;60.88;;;6.70;83.30;;;;;;5078419;28;20123;-77
2022/03/25 00:03:35;;;;;;;96.38;59.20;;;6.60;83.30;;;;;;5061711;28;20389;-77
2022/03/25 00:06:01;;;;;;;91.07;57.90;;;6.60;83.30;;;;;;5061204;28;20150;-76
2022/03/25 00:08:27;;;;;;;90.85;57.85;;;6.60;83.20;;;;;;5061741;28;20039;-76
2022/03/25 00:10:53;;;;;;;86.78;58.15;;;6.60;83.60;;;;;;5044685;28;20044;-77
2022/03/25 00:13:18;;;;;;;90.82;58.10;;;6.50;83.80;;;;;;5078304;28;20124;-76
2022/03/25 00:15:44;;;;;;;93.35;57.33;;;6.50;83.90;;;;;;5077620;28;20039;-77
2022/03/25 00:18:10;;;;;;;91.63;60.45;;;6.50;83.90;;;;;;5077716;28;20050;-77
2022/03/25 00:20:36;;;;;;;88.97;57.28;;;6.50;83.90;;;;;;5077617;28;20055;-77
2022/03/25 00:23:04;;;;;;;85.07;54.95;;;6.50;83.80;;;;;;5077629;28;20040;-77
2022/03/25 00:25:30;;;;;;;86.68;56.53;;;6.40;83.80;;;;;;5077506;28;20066;-77
2022/03/25 00:27:56;;;;;;;82.82;53.78;;;6.40;83.90;;;;;;5077259;28;20044;-77
2022/03/25 00:30:21;;;;;;;84.25;53.60;;;6.40;84.00;;;;;;5076965;28;20448;-77
2022/03/25 00:32:47;;;;;;;84.32;53.58;;;6.40;84.10;;;;;;5076409;28;20088;-77
2022/03/25 00:35:13;;;;;;;86.35;58.10;;;6.30;84.30;;;;;;5059559;28;20124;-77
2022/03/25 00:37:38;;;;;;;85.80;55.60;;;6.30;84.20;;;;;;5059536;28;20400;-76
2022/03/25 00:40:05;;;;;;;93.30;60.55;;;6.30;84.20;;;;;;5076238;28;20043;-77
2022/03/25 00:42:31;;;;;;;84.13;55.72;;;6.30;84.00;;;;;;5076437;28;20492;-76
2022/03/25 00:44:57;;;;;;;90.68;56.83;;;6.20;84.00;;;;;;5059501;28;20040;-77
2022/03/25 00:47:23;;;;;;;88.93;55.75;;;6.20;84.00;;;;;;5059623;28;20087;-77
2022/03/25 00:49:52;;;;;;;85.88;56.63;;;6.20;84.00;;;;;;5059624;28;20036;-77
2022/03/25 00:52:18;;;;;;;86.72;55.05;;;6.10;84.10;;;;;;5076114;28;20092;-77
2022/03/25 00:54:44;;;;;;;80.22;53.58;;;6.10;84.10;;;;;;5076079;28;20124;-76
2022/03/25 00:57:10;;;;;;;78.30;52.83;;;6.10;84.00;;;;;;5042501;28;20122;-77
2022/03/25 00:59:36;;;;;;;95.38;58.05;;;6.10;84.00;;;;;;5059308;28;20044;-77
2022/03/25 01:02:02;;;;;;;80.18;50.80;;;6.10;83.90;;;;;;5075837;28;20119;-77
2022/03/25 01:04:29;;;;;;;85.15;53.70;;;6.00;83.90;;;;;;5058933;28;20044;-77
2022/03/25 01:06:55;;;;;;;84.15;52.28;;;6.00;84.00;;;;;;5059163;28;20044;-77
2022/03/25 01:09:21;;;;;;;81.30;52.75;;;6.00;84.00;;;;;;5075714;28;20040;-77
2022/03/25 01:11:47;;;;;;;82.15;52.17;;;6.00;83.90;;;;;;5042580;28;20040;-77
2022/03/25 01:14:13;;;;;;;82.53;54.08;;;5.90;83.80;;;;;;5059089;28;20044;-77
2022/03/25 01:16:39;;;;;;;85.10;53.83;;;5.90;83.80;;;;;;5075553;28;20080;-77
2022/03/25 01:19:05;;;;;;;81.03;52.95;;;5.90;83.80;;;;;;5075510;28;20076;-77
2022/03/25 01:21:31;;;;;;;75.32;50.15;;;5.80;84.00;;;;;;5075397;28;20087;-77
2022/03/25 01:23:57;;;;;;;84.90;54.17;;;5.80;84.10;;;;;;5058944;28;20048;-77
2022/03/25 01:26:24;;;;;;;86.18;52.85;;;5.80;84.20;;;;;;5075517;28;20048;-77
2022/03/25 01:28:50;;;;;;;83.63;53.65;;;5.70;84.20;;;;;;5075352;28;20048;-78
2022/03/25 01:31:16;;;;;;;78.95;51.53;;;5.70;84.40;;;;;;5033197;28;1117847;-77
2022/03/25 01:33:42;;;;;;;79.03;50.85;;;5.70;84.50;;;;;;5072793;28;20048;-77
2022/03/25 01:36:09;;;;;;;85.30;54.42;;;5.70;84.50;;;;;;5073050;28;20063;-77
2022/03/25 01:38:35;;;;;;;86.97;53.67;;;5.70;84.50;;;;;;5072058;28;20036;-77
2022/03/25 01:41:01;;;;;;;81.25;51.92;;;5.70;84.40;;;;;;5056236;28;20062;-77
2022/03/25 01:43:26;;;;;;;81.97;52.92;;;5.70;84.70;;;;;;5072982;28;20366;-77
2022/03/25 01:45:52;;;;;;;79.43;51.30;;;5.70;84.90;;;;;;5072936;28;20056;-77
2022/03/25 01:48:18;;;;;;;89.43;54.33;;;5.70;84.50;;;;;;5039542;28;20037;-77
2022/03/25 01:50:46;;;;;;;85.90;55.53;;;5.70;84.20;;;;;;5072831;28;20040;-77
2022/03/25 01:53:14;;;;;;;88.53;55.63;;;5.70;84.70;;;;;;5072544;28;20040;-77
2022/03/25 01:55:57;;;;;;;73.28;48.42;;;5.70;84.90;;;;;;5055783;28;20484;-77
2022/03/25 01:58:25;;;;;;;79.85;50.63;;;5.70;84.70;;;;;;5072433;28;20050;-77
2022/03/25 02:00:51;;;;;;;84.15;52.75;;;5.70;84.90;;;;;;5072341;28;20090;-77
2022/03/25 02:03:18;;;;;;;84.38;53.10;;;5.60;84.80;;;;;;5055750;28;20040;-77
2022/03/25 02:05:46;;;;;;;77.75;50.00;;;5.60;84.80;;;;;;5072290;28;20124;-77
2022/03/25 02:08:12;;;;;;;77.88;48.25;;;5.60;84.70;;;;;;5072358;28;20496;-77
2022/03/25 02:10:41;;;;;;;78.00;48.17;;;5.60;84.80;;;;;;5072316;28;20079;-77
2022/03/25 02:13:08;;;;;;;73.85;48.28;;;5.60;84.70;;;;;;5055554;28;20558;-77
2022/03/25 02:15:43;;;;;;;68.72;45.15;;;5.60;84.70;;;;;;5072150;28;20048;-77
2022/03/25 02:18:14;;;;;;;71.47;45.65;;;5.60;84.60;;;;;;5072096;28;20135;-77
2022/03/25 02:20:41;;;;;;;74.13;47.90;;;5.50;84.50;;;;;;5055565;28;20094;-77
2022/03/25 02:23:08;;;;;;;72.63;45.75;;;5.50;84.40;;;;;;5071899;28;20127;-77
2022/03/25 02:25:34;;;;;;;70.07;45.95;;;5.50;84.30;;;;;;5072184;28;20401;-77
2022/03/25 02:28:03;;;;;;;69.70;45.08;;;5.50;84.30;;;;;;5072243;28;20052;-77
2022/03/25 02:30:29;;;;;;;69.22;45.10;;;5.40;84.30;;;;;;5054708;28;20048;-77
2022/03/25 02:33:01;;;;;;;68.70;43.97;;;5.40;84.10;;;;;;5071896;28;20089;-77
2022/03/25 02:35:40;;;;;;;64.00;43.40;;;5.40;84.10;;;;;;5055392;28;20044;-77
2022/03/25 02:38:07;;;;;;;65.13;43.85;;;5.40;84.00;;;;;;5071702;28;20123;-77
2022/03/25 02:40:33;;;;;;;66.60;44.70;;;5.30;84.00;;;;;;5072280;28;20059;-77
2022/03/25 02:42:59;;;;;;;66.43;44.10;;;5.30;83.90;;;;;;5072013;28;20040;-77
2022/03/25 02:45:25;;;;;;;63.35;43.75;;;5.30;83.80;;;;;;5055251;28;20036;-77
2022/03/25 02:47:50;;;;;;;65.70;43.28;;;5.30;83.90;;;;;;5054913;28;20401;-77
2022/03/25 02:50:16;;;;;;;58.28;40.72;;;5.20;83.90;;;;;;5071859;28;20040;-77
2022/03/25 02:52:42;;;;;;;63.88;41.58;;;5.20;83.80;;;;;;5054888;28;20123;-77
2022/03/25 02:55:08;;;;;;;56.95;39.05;;;5.10;83.60;;;;;;5054924;28;20493;-77
2022/03/25 02:57:35;;;;;;;60.35;40.15;;;5.10;83.60;;;;;;5054991;28;20044;-77
2022/03/25 03:00:03;;;;;;;62.45;40.78;;;5.10;83.60;;;;;;5055181;28;20044;-77
2022/03/25 03:02:29;;;;;;;61.40;41.10;;;5.10;83.50;;;;;;5071486;28;20039;-77
2022/03/25 03:04:55;;;;;;;64.03;41.25;;;5.00;83.60;;;;;;5071811;28;20037;-77
2022/03/25 03:07:21;;;;;;;60.03;41.13;;;5.00;83.60;;;;;;5071414;28;20036;-77
2022/03/25 03:09:46;;;;;;;64.78;40.90;;;5.00;83.60;;;;;;5071405;28;20068;-77
2022/03/25 03:12:13;;;;;;;62.22;40.20;;;5.00;83.60;;;;;;5071493;28;20044;-77
2022/03/25 03:14:39;;;;;;;67.85;41.65;;;5.00;83.70;;;;;;5071695;28;20076;-77
2022/03/25 03:17:04;;;;;;;61.92;40.33;;;5.00;83.70;;;;;;5071325;28;20072;-77
2022/03/25 03:19:31;;;;;;;64.15;41.97;;;5.00;83.60;;;;;;5071347;28;20083;-77
2022/03/25 03:21:57;;;;;;;68.38;44.15;;;4.90;83.50;;;;;;5071526;28;20032;-77
2022/03/25 03:24:23;;;;;;;63.47;43.67;;;4.90;83.70;;;;;;5071610;28;20393;-77
2022/03/25 03:26:49;;;;;;;74.28;44.75;;;4.80;83.80;;;;;;5071287;28;20037;-77
2022/03/25 03:29:15;;;;;;;71.88;44.10;;;4.80;84.10;;;;;;5054788;28;20041;-77
2022/03/25 03:31:41;;;;;;;73.88;44.90;;;4.90;84.50;;;;;;5054550;28;20060;-77
2022/03/25 03:34:06;;;;;;;64.80;42.42;;;4.90;84.70;;;;;;5054887;28;20052;-77
2022/03/25 03:36:32;;;;;;;72.05;46.47;;;4.90;84.80;;;;;;5071350;28;20098;-77
2022/03/25 03:38:58;;;;;;;71.70;46.60;;;4.90;84.70;;;;;;5071234;28;20040;-77
2022/03/25 03:41:25;;;;;;;72.80;46.33;;;4.80;84.50;;;;;;5071220;28;20081;-77
2022/03/25 03:43:51;;;;;;;74.10;45.97;;;4.90;85.00;;;;;;5054455;28;20434;-76
2022/03/25 03:46:16;;;;;;;65.97;44.00;;;4.90;85.10;;;;;;5054658;28;20127;-76
2022/03/25 03:48:43;;;;;;;73.05;45.45;;;4.90;85.10;;;;;;5054705;28;20400;-76
2022/03/25 03:51:09;;;;;;;73.57;45.95;;;4.90;85.00;;;;;;5054557;28;20052;-76
2022/03/25 03:53:34;;;;;;;73.70;45.83;;;4.90;85.00;;;;;;5071298;28;20045;-76
2022/03/25 03:56:00;;;;;;;75.95;48.58;;;4.80;85.00;;;;;;5070880;28;20508;-76
2022/03/25 03:58:26;;;;;;;73.60;45.70;;;4.80;85.00;;;;;;5054388;28;20036;-76
2022/03/25 04:00:51;;;;;;;75.05;48.30;;;4.90;85.10;;;;;;5054443;28;20111;-76
2022/03/25 04:03:17;;;;;;;78.13;47.35;;;4.90;85.10;;;;;;5074530;28;20040;-76
2022/03/25 04:05:44;;;;;;;83.03;49.58;;;4.80;85.10;;;;;;5058128;28;20090;-76
2022/03/25 04:08:10;;;;;;;82.72;48.15;;;4.80;85.10;;;;;;5074828;28;20400;-76
2022/03/25 04:10:36;;;;;;;76.28;47.25;;;4.80;85.20;;;;;;5057831;28;20049;-76
2022/03/25 04:13:02;;;;;;;82.28;48.55;;;4.80;85.10;;;;;;5074763;28;20040;-76
2022/03/25 04:15:27;;;;;;;74.63;46.85;;;4.80;85.10;;;;;;5074322;28;20041;-76
2022/03/25 04:17:53;;;;;;;77.18;47.20;;;4.70;85.10;;;;;;5074246;28;20047;-76
2022/03/25 04:20:19;;;;;;;79.10;47.55;;;4.70;85.10;;;;;;5074501;28;20043;-76
2022/03/25 04:22:46;;;;;;;75.63;47.53;;;4.60;85.30;;;;;;5074215;28;20068;-76
2022/03/25 04:25:13;;;;;;;77.95;46.65;;;4.60;85.30;;;;;;5074275;28;20051;-76
2022/03/25 04:28:05;;;;;;;74.53;47.15;;;4.60;85.30;;;;;;5074261;28;20123;-76
2022/03/25 04:30:32;;;;;;;71.18;44.58;;;4.60;85.20;;;;;;5070283;28;20068;-76
2022/03/25 04:32:59;;;;;;;75.45;47.35;;;4.60;85.20;;;;;;5074035;28;20507;-76
2022/03/25 04:35:25;;;;;;;81.05;46.95;;;4.50;85.20;;;;;;5074006;28;20123;-76
2022/03/25 04:37:52;;;;;;;78.50;48.67;;;4.50;85.20;;;;;;5074153;28;20051;-76
2022/03/25 04:40:20;;;;;;;80.60;48.05;;;4.40;85.20;;;;;;5074256;28;20050;-76
2022/03/25 04:42:47;;;;;;;78.50;47.63;;;4.40;85.20;;;;;;5074218;28;20049;-76
2022/03/25 04:45:13;;;;;;;77.25;46.70;;;4.40;85.10;;;;;;5073790;28;20532;-77
2022/03/25 04:47:39;;;;;;;82.78;49.17;;;4.40;85.10;;;;;;5073833;28;20041;-76
2022/03/25 04:50:05;;;;;;;86.53;51.15;;;4.30;85.10;;;;;;5073883;28;20036;-76
2022/03/25 04:52:31;;;;;;;95.93;54.10;;;4.30;85.30;;;;;;5074032;28;20041;-76
2022/03/25 04:54:57;;;;;;;94.57;55.08;;;4.20;85.40;;;;;;5073749;28;20572;-77
2022/03/25 04:57:23;;;;;;;88.78;51.35;;;4.20;85.60;;;;;;5073599;28;20135;-77
2022/03/25 04:59:49;;;;;;;87.18;50.35;;;4.20;85.70;;;;;;5057252;28;20039;-77
2022/03/25 05:02:15;;;;;;;95.38;53.33;;;4.20;85.90;;;;;;5073800;28;20097;-77
2022/03/25 05:04:41;;;;;;;87.60;47.42;;;4.30;85.90;;;;;;5073546;28;20497;-77
2022/03/25 05:07:16;;;;;;;82.13;48.00;;;4.30;85.50;;;;;;5073711;28;20052;-77
2022/03/25 05:09:42;;;;;;;91.30;53.05;;;4.30;85.50;;;;;;5073453;28;20481;-77
2022/03/25 05:12:09;;;;;;;98.55;54.53;;;4.30;85.90;;;;;;5056908;28;20040;-77
2022/03/25 05:14:35;;;;;;;92.40;53.05;;;4.30;86.30;;;;;;5055646;28;20045;-77
2022/03/25 05:17:01;;;;;;;88.47;51.88;;;4.30;86.40;;;;;;5056503;28;20056;-77
2022/03/25 05:19:27;;;;;;;88.45;49.70;;;4.30;86.40;;;;;;5056090;28;20131;-77
2022/03/25 05:21:53;;;;;;;88.80;51.13;;;4.20;86.50;;;;;;5056390;28;20480;-77
2022/03/25 05:24:19;;;;;;;97.30;52.75;;;4.20;86.40;;;;;;5073103;28;20189;-77
2022/03/25 05:26:44;;;;;;;84.82;51.80;;;4.20;86.30;;;;;;5072675;28;20500;-77
2022/03/25 05:29:10;;;;;;;90.97;50.97;;;4.30;86.40;;;;;;5073157;28;20093;-77
2022/03/25 05:31:37;;;;;;;85.13;51.28;;;4.30;86.50;;;;;;5072747;28;20056;-77
2022/03/25 05:34:06;;;;;;;87.88;50.67;;;4.30;86.60;;;;;;5073016;28;20055;-78
2022/03/25 05:36:35;;;;;;;96.68;51.00;;;4.30;86.70;;;;;;5073063;28;20507;-78
2022/03/25 05:39:01;;;;;;;80.00;47.40;;;4.40;86.50;;;;;;5072868;28;20404;-78
2022/03/25 05:41:28;;;;;;;84.20;47.33;;;4.40;87.00;;;;;;5073014;28;20036;-77
2022/03/25 05:43:54;;;;;;;88.63;50.92;;;4.40;86.60;;;;;;5072710;28;20044;-77
2022/03/25 05:46:20;;;;;;;83.25;48.53;;;4.40;86.40;;;;;;5072618;28;20040;-78
2022/03/25 05:48:46;;;;;;;79.72;48.75;;;4.50;86.30;;;;;;5072898;28;20036;-78
2022/03/25 05:51:12;;;;;;;87.07;50.63;;;4.50;86.60;;;;;;5055960;28;20037;-78
2022/03/25 05:53:39;;;;;;;86.78;49.80;;;4.50;86.60;;;;;;5072498;28;20050;-78
2022/03/25 05:56:05;;;;;;;87.82;50.15;;;4.50;86.80;;;;;;5055765;28;20041;-78
2022/03/25 05:58:35;;;;;;;81.35;48.28;;;4.50;86.70;;;;;;5055761;28;20052;-77
2022/03/25 06:01:07;;;;;;;84.55;48.85;;;4.50;86.70;;;;;;5072438;28;20094;-78
2022/03/25 06:03:33;;;;;;;78.90;48.05;;;4.50;86.70;;;;;;5055738;28;20504;-77
2022/03/25 06:06:05;;;;;;;76.25;47.55;;;4.40;86.70;;;;;;5072530;28;20032;-78
2022/03/25 06:08:31;;;;;;;77.45;45.53;;;4.50;86.60;;;;;;5072297;28;20052;-78
2022/03/25 06:10:59;;;;;;;72.35;44.45;;;4.50;86.70;;;;;;5072418;28;20392;-77
2022/03/25 06:13:26;;;;;;;68.15;42.60;;;4.50;86.70;;;;;;5039359;28;20127;-77
2022/03/25 06:15:52;;;;;;;75.63;48.00;;;4.50;86.60;;;;;;5055695;28;20393;-77
2022/03/25 06:18:18;;;;;;;77.40;47.28;;;4.50;86.80;;;;;;5055490;28;20076;-78
2022/03/25 06:20:44;;;;;;;85.38;48.42;;;4.60;86.80;;;;;;5072139;28;20072;-78
2022/03/25 06:23:10;;;;;;;84.32;50.42;;;4.60;86.80;;;;;;5038788;28;20032;-78
2022/03/25 06:25:35;;;;;;;75.90;46.30;;;4.60;87.00;;;;;;5055143;28;20124;-78
2022/03/25 06:28:04;;;;;;;75.70;46.80;;;4.60;87.00;;;;;;5055226;28;20036;-78
2022/03/25 06:30:34;;;;;;;82.30;49.08;;;4.70;86.90;;;;;;5071798;28;20109;-78
2022/03/25 06:33:02;;;;;;;75.80;47.00;;;4.70;86.90;;;;;;5072224;28;20051;-78
2022/03/25 06:35:28;;;;;;;57.40;36.15;;;4.80;87.10;;;;;;5071744;28;20082;-77
2022/03/25 06:37:55;;;;;;;75.68;44.80;;;5.00;86.40;;;;;;5071694;28;20125;-77
2022/03/25 06:40:22;;;;;;;65.57;41.20;;;5.20;86.70;;;;;;5054957;28;20033;-77
2022/03/25 06:42:48;;;;;;;56.22;37.00;;;5.30;86.50;;;;;;5071789;28;20093;-77
2022/03/25 06:45:16;;;;;;;70.45;42.40;;;5.40;86.30;;;;;;5054997;28;20040;-76
2022/03/25 06:47:43;;;;;;;72.97;44.20;;;5.60;86.30;;;;;;5071582;28;20094;-77
2022/03/25 06:50:10;;;;;;;77.00;44.45;;;5.60;86.30;;;;;;5071735;28;20048;-77
2022/03/25 06:52:43;;;;;;;73.60;44.83;;;5.60;86.30;;;;;;5071825;28;20048;-79
2022/03/25 06:55:10;;;;;;;72.97;45.30;;;5.60;86.60;;;;;;5054748;28;20488;-78
2022/03/25 06:57:35;;;;;;;72.32;44.17;;;5.70;86.80;;;;;;5054725;28;20489;-77
2022/03/25 07:00:03;;;;;;;64.95;38.22;;;5.70;86.40;;;;;;5054850;28;20052;-78
2022/03/25 07:02:30;;;;;;;53.13;35.38;;;5.80;86.30;;;;;;5071534;28;20040;-78
2022/03/25 07:04:56;;;;;;;62.97;38.58;;;5.80;86.40;;;;;;5054837;28;20045;-78
2022/03/25 07:07:26;;;;;;;59.83;38.42;;;5.80;86.10;;;;;;5071486;28;20052;-78
2022/03/25 07:09:53;;;;;;;61.38;38.17;;;5.90;86.10;;;;;;5071870;28;20047;-78
2022/03/25 07:12:19;;;;;;;58.92;37.95;;;6.00;86.00;;;;;;5071429;28;20493;-78
2022/03/25 07:14:44;;;;;;;64.18;40.85;;;6.10;86.10;;;;;;5054795;28;20036;-77
2022/03/25 07:17:10;;;;;;;66.70;41.95;;;6.10;86.20;;;;;;5071387;28;20048;-79
2022/03/25 07:19:36;;;;;;;60.38;40.50;;;6.30;85.50;;;;;;5071313;28;20069;-78
2022/03/25 07:22:02;;;;;;;60.45;38.72;;;6.40;85.40;;;;;;5071695;28;20131;-78
2022/03/25 07:24:29;;;;;;;63.85;40.15;;;6.50;85.50;;;;;;5071421;28;20041;-78
2022/03/25 07:26:55;;;;;;;57.45;35.97;;;6.60;85.50;;;;;;5071572;28;20381;-79
2022/03/25 07:29:20;;;;;;;61.05;37.05;;;6.70;85.40;;;;;;5071578;28;20040;-79
2022/03/25 07:31:46;;;;;;;52.17;36.17;;;6.80;85.20;;;;;;5054591;28;20496;-79
2022/03/25 07:34:11;;;;;;;55.30;37.10;;;7.00;85.10;;;;;;5071441;28;20501;-79
2022/03/25 07:36:37;;;;;;;53.28;34.75;;;7.00;85.10;;;;;;5055671;28;20484;-78
2022/03/25 07:39:04;;;;;;;57.83;36.97;;;7.10;84.90;;;;;;5075039;28;20044;-79
2022/03/25 07:41:29;;;;;;;57.05;36.60;;;7.30;84.70;;;;;;5058552;28;20036;-79
2022/03/25 07:43:55;;;;;;;58.53;37.65;;;7.40;84.60;;;;;;5075010;28;20036;-79
2022/03/25 07:46:23;;;;;;;56.00;37.92;;;7.50;84.40;;;;;;5074980;28;20044;-79
2022/03/25 07:48:49;;;;;;;57.83;36.80;;;7.60;84.20;;;;;;5074970;28;20041;-78
2022/03/25 07:51:15;;;;;;;54.47;35.47;;;7.60;84.10;;;;;;5074950;28;20123;-79
2022/03/25 07:53:41;;;;;;;54.75;35.80;;;7.70;84.00;;;;;;5058708;28;20147;-79
2022/03/25 07:56:07;;;;;;;55.45;35.35;;;7.80;83.80;;;;;;5058349;28;20040;-78
2022/03/25 07:58:32;;;;;;;55.33;37.85;;;7.90;83.50;;;;;;5058067;28;20493;-79
2022/03/25 08:00:58;;;;;;;54.15;36.17;;;8.00;83.50;;;;;;5074769;28;20037;-79
2022/03/25 08:03:26;;;;;;;48.92;31.38;;;8.10;83.30;;;;;;5074694;28;20045;-79
2022/03/25 08:05:54;;;;;;;55.70;34.08;;;8.10;83.10;;;;;;5074907;28;20488;-79
2022/03/25 08:08:20;;;;;;;47.10;31.83;;;8.10;82.90;;;;;;5058567;28;20396;-79
2022/03/25 08:10:47;;;;;;;52.40;33.78;;;8.20;82.70;;;;;;5057945;28;20037;-79
2022/03/25 08:13:13;;;;;;;47.72;31.30;;;8.30;82.40;;;;;;5074586;28;20505;-78
2022/03/25 08:15:39;;;;;;;53.03;33.22;;;8.40;82.00;;;;;;5057809;28;20499;-79
2022/03/25 08:18:07;;;;;;;47.92;30.77;;;8.50;81.80;;;;;;5057727;28;20036;-79
2022/03/25 08:20:40;;;;;;;49.35;31.23;;;8.50;81.60;;;;;;5057779;28;20090;-79
2022/03/25 08:28:51;;;;;;;43.75;28.92;;;8.70;79.40;;;;;;5074300;28;20051;-79
2022/03/25 08:31:18;;;;;;;44.55;29.75;;;8.80;79.00;;;;;;5074016;28;20139;-79
2022/03/25 08:33:44;;;;;;;49.45;28.27;;;9.00;78.80;;;;;;5074416;28;20139;-79
2022/03/25 08:36:10;;;;;;;44.60;27.52;;;9.00;78.30;;;;;;5057681;28;20492;-79
2022/03/25 08:38:36;;;;;;;39.90;27.23;;;9.20;77.90;;;;;;5074183;28;20045;-79
2022/03/25 08:41:04;;;;;;;42.55;26.73;;;9.30;77.00;;;;;;5057767;28;20527;-79
2022/03/25 08:43:30;;;;;;;38.80;26.25;;;9.40;76.80;;;;;;5074021;28;20047;-79
2022/03/25 08:45:57;;;;;;;36.50;25.60;;;9.50;76.10;;;;;;5073847;28;20047;-80
2022/03/25 08:48:23;;;;;;;38.53;25.45;;;9.60;75.70;;;;;;5056954;28;20041;-80
2022/03/25 08:50:50;;;;;;;38.17;24.77;;;9.60;74.80;;;;;;5073840;28;20047;-79
2022/03/25 08:53:17;;;;;;;38.17;25.27;;;9.70;73.80;;;;;;5073789;28;20489;-80
2022/03/25 08:55:43;;;;;;;42.47;24.42;;;9.80;73.70;;;;;;5057257;28;20370;-80
2022/03/25 08:58:09;;;;;;;38.80;22.40;;;9.90;73.30;;;;;;5073660;28;20033;-80
2022/03/25 09:00:35;;;;;;;41.10;24.17;;;10.00;71.80;;;;;;5073967;28;20072;-80
2022/03/25 09:03:01;;;;;;;35.40;24.45;;;10.10;71.00;;;;;;5040411;28;20500;-80
2022/03/25 09:05:26;;;;;;;36.33;22.08;;;10.10;71.30;;;;;;5056886;28;20045;-80
2022/03/25 09:07:52;;;;;;;34.60;22.25;;;10.20;70.80;;;;;;5073571;28;20099;-80
2022/03/25 09:10:18;;;;;;;34.20;22.60;;;10.40;70.20;;;;;;5073788;28;20040;-80
2022/03/25 09:12:44;;;;;;;34.03;21.02;;;10.50;70.30;;;;;;5073694;28;20040;-80
2022/03/25 09:15:13;;;;;;;33.47;19.90;;;10.60;69.40;;;;;;5073617;28;20438;-80
2022/03/25 09:17:39;;;;;;;29.30;18.80;;;10.70;68.30;;;;;;5073548;28;20044;-80
2022/03/25 09:20:06;;;;;;;32.63;22.40;;;10.90;68.00;;;;;;5073279;28;20520;-80
2022/03/25 09:22:33;;;;;;;36.83;21.58;;;11.00;66.70;;;;;;5056645;28;20037;-81
2022/03/25 09:24:59;;;;;;;29.90;19.20;;;11.10;66.60;;;;;;5056435;28;20048;-80
2022/03/25 09:27:25;;;;;;;31.48;18.85;;;11.20;66.10;;;;;;5040205;28;20041;-79
2022/03/25 09:29:51;;;;;;;30.95;19.23;;;11.30;65.30;;;;;;5056354;28;20500;-80
2022/03/25 09:32:17;;;;;;;31.88;21.88;;;11.40;64.80;;;;;;5056467;28;20109;-80
2022/03/25 09:37:27;;;;;;;38.63;21.13;;;11.70;65.30;;;;;;5072914;28;20507;-79
2022/03/25 09:39:52;;;;;;;31.10;20.13;;;11.80;64.20;;;;;;5073041;28;20079;-80
2022/03/25 09:42:19;;;;;;;31.42;21.00;;;11.90;63.10;;;;;;5073326;28;20036;-80
2022/03/25 09:44:46;;;;;;;30.80;19.92;;;12.00;64.20;;;;;;5056626;28;20056;-80
2022/03/25 09:47:14;;;;;;;30.77;19.70;;;12.10;63.60;;;;;;5073499;28;20044;-80
2022/03/25 09:49:41;;;;;;;34.03;20.55;;;12.30;63.20;;;;;;5073209;28;20075;-80
2022/03/25 09:52:07;;;;;;;33.28;22.13;;;12.30;61.10;;;;;;5055988;28;20044;-80
2022/03/25 09:54:34;;;;;;;32.92;22.10;;;12.40;61.30;;;;;;5056147;28;20158;-81
2022/03/25 09:57:00;;;;;;;28.33;18.65;;;12.50;61.00;;;;;;5072521;28;20093;-80
2022/03/25 09:59:26;;;;;;;35.22;20.13;;;12.50;59.80;;;;;;5071851;28;20064;-80
2022/03/25 10:01:52;;;;;;;29.38;19.38;;;12.60;58.80;;;;;;5072701;28;20413;-81
2022/03/25 10:04:51;;;;;;;27.45;19.50;;;12.70;59.10;;;;;;5055716;28;20473;-81
2022/03/25 10:07:27;;;;;;;31.90;19.95;;;12.80;59.00;;;;;;5057898;28;20157;-81
2022/03/25 10:10:08;;;;;;;33.90;20.77;;;13.00;59.60;;;;;;5072339;28;20044;-80
2022/03/25 10:12:34;;;;;;;33.28;19.45;;;13.00;58.60;;;;;;5072612;28;20040;-81
2022/03/25 10:15:17;;;;;;;28.83;18.60;;;13.20;58.10;;;;;;5072158;28;20040;-81
2022/03/25 10:18:01;;;;;;;32.50;21.23;;;13.30;57.90;;;;;;5072366;28;20538;-81
2022/03/25 10:20:41;;;;;;;33.97;18.50;;;13.50;57.50;;;;;;5072196;28;20040;-81
2022/03/25 10:23:08;;;;;;;24.80;16.05;;;13.60;56.60;;;;;;5072317;28;20076;-80
2022/03/25 10:25:51;;;;;;;25.38;16.70;;;13.70;56.00;;;;;;5071937;28;20496;-81
2022/03/25 10:28:31;;;;;;;25.15;15.52;;;13.90;55.10;;;;;;5072285;28;20439;-81
2022/03/25 10:31:02;;;;;;;29.67;17.15;;;14.10;54.00;;;;;;5074676;28;20059;-80
2022/03/25 10:33:34;;;;;;;24.13;16.85;;;14.20;53.80;;;;;;5075319;28;20059;-81
2022/03/25 10:36:08;;;;;;;28.58;17.20;;;14.30;51.70;;;;;;5075280;28;20047;-81
2022/03/25 10:38:42;;;;;;;21.67;15.48;;;14.50;52.10;;;;;;5058520;28;20119;-81
2022/03/25 10:41:09;;;;;;;26.50;17.50;;;14.60;52.20;;;;;;5074995;28;20484;-81
2022/03/25 10:43:46;;;;;;;28.23;16.90;;;14.80;52.10;;;;;;5041821;28;20044;-81
2022/03/25 10:46:26;;;;;;;25.90;16.35;;;14.90;51.70;;;;;;5058432;28;20036;-81
2022/03/25 10:48:55;;;;;;;27.13;17.13;;;15.00;50.10;;;;;;5075486;28;20047;-80
2022/03/25 10:51:21;;;;;;;24.88;17.20;;;15.10;48.40;;;;;;5075173;28;20162;-81
2022/03/25 10:53:54;;;;;;;27.80;16.45;;;15.10;48.30;;;;;;5058334;28;20119;-81
2022/03/25 10:56:20;;;;;;;26.35;16.10;;;15.20;49.00;;;;;;5075021;28;20044;-81
2022/03/25 10:58:55;;;;;;;26.80;18.17;;;15.30;49.30;;;;;;5058441;28;20127;-81
2022/03/25 11:01:21;;;;;;;25.35;16.60;;;15.40;48.90;;;;;;5075329;28;20043;-81
2022/03/25 11:03:51;;;;;;;28.20;16.80;;;15.60;48.70;;;;;;5074981;28;20035;-81
2022/03/25 11:06:23;;;;;;;28.52;16.77;;;15.60;47.10;;;;;;5074874;28;20125;-81
2022/03/25 11:08:49;;;;;;;26.50;16.90;;;15.70;47.80;;;;;;5042792;28;20036;-81
2022/03/25 11:11:16;;;;;;;21.98;16.70;;;15.90;48.60;;;;;;5027509;28;20480;-81
2022/03/25 11:13:47;;;;;;;27.08;16.08;;;16.00;46.80;;;;;;5046104;28;20044;-81
2022/03/25 11:16:17;;;;;;;23.25;16.35;;;16.00;48.00;;;;;;5062504;28;20048;-81
2022/03/25 11:18:44;;;;;;;25.33;16.90;;;16.20;48.30;;;;;;5062374;28;20072;-81
2022/03/25 11:21:12;;;;;;;23.90;16.45;;;16.40;48.40;;;;;;5062199;28;20127;-81
2022/03/25 11:23:46;;;;;;;25.40;17.25;;;16.50;48.10;;;;;;5078894;28;20043;-81
2022/03/25 11:26:17;;;;;;;27.25;16.45;;;16.50;47.50;;;;;;5078594;28;20110;-81
2022/03/25 11:28:44;;;;;;;23.63;15.48;;;16.70;46.60;;;;;;5062114;28;20043;-81
2022/03/25 11:31:10;;;;;;;27.08;17.20;;;16.80;47.00;;;;;;5078499;28;20052;-81
2022/03/25 11:34:09;;;;;;;27.30;17.13;;;16.70;45.10;;;;;;5078757;28;20484;-81
2022/03/25 11:36:41;;;;;;;25.63;15.10;;;16.70;43.60;;;;;;5078843;28;20087;-81
2022/03/25 11:39:22;;;;;;;25.13;16.45;;;16.90;44.30;;;;;;5061984;28;20147;-81
2022/03/25 11:41:49;;;;;;;23.35;16.70;;;16.90;44.50;;;;;;5078835;28;20388;-79
2022/03/25 11:44:15;;;;;;;28.52;16.67;;;17.00;43.30;;;;;;5061778;28;20043;-81
2022/03/25 11:47:03;;;;;;;24.23;15.48;;;17.00;42.90;;;;;;5062059;28;20044;-82
2022/03/25 11:49:31;;;;;;;25.50;16.52;;;17.10;41.70;;;;;;5078650;28;20036;-81
2022/03/25 11:51:57;;;;;;;23.48;16.25;;;17.20;43.40;;;;;;5061670;28;20040;-82
2022/03/25 11:54:40;;;;;;;25.80;15.70;;;17.30;43.30;;;;;;5061483;28;20487;-81
2022/03/25 11:57:20;;;;;;;21.20;15.43;;;17.40;41.80;;;;;;5078121;28;20055;-82
2022/03/25 11:59:48;;;;;;;25.02;16.60;;;17.40;40.40;;;;;;5078093;28;20075;-81
2022/03/25 12:02:36;;;;;;;23.60;17.48;;;17.40;40.70;;;;;;5078134;28;20028;-81
2022/03/25 12:05:04;;;;;;;26.45;19.58;;;17.40;41.60;;;;;;5078067;28;20040;-81
2022/03/25 12:07:30;;;;;;;29.10;19.55;;;17.50;41.70;;;;;;5061416;28;20337;-82
2022/03/25 12:09:56;;;;;;;27.15;18.75;;;17.50;42.50;;;;;;5077943;28;20040;-82
2022/03/25 12:12:55;;;;;;;31.70;21.27;;;17.50;42.00;;;;;;5077927;28;20044;-81
2022/03/25 12:15:38;;;;;;;28.02;19.92;;;17.50;42.00;;;;;;5077832;28;20496;-78
2022/03/25 12:18:40;;;;;;;25.47;19.67;;;17.60;43.20;;;;;;5061377;28;20448;-79
2022/03/25 12:21:21;;;;;;;27.48;19.52;;;17.60;42.70;;;;;;5078064;28;20384;-79
2022/03/25 12:24:01;;;;;;;29.92;21.08;;;17.50;42.70;;;;;;5060441;28;20043;-79
2022/03/25 12:26:35;;;;;;;31.10;19.88;;;17.50;43.50;;;;;;5077826;28;20036;-80
2022/03/25 12:29:01;;;;;;;33.45;20.92;;;17.60;44.90;;;;;;5077735;28;20048;-79
2022/03/25 12:31:28;;;;;;;31.50;20.35;;;17.70;44.30;;;;;;5074298;28;20096;-80
2022/03/25 12:33:55;;;;;;;29.17;19.88;;;17.70;42.80;;;;;;5057457;28;20055;-79
2022/03/25 12:36:23;;;;;;;29.10;20.45;;;17.70;42.00;;;;;;5074296;28;20083;-79
2022/03/25 12:38:49;;;;;;;29.58;19.02;;;17.80;43.20;;;;;;5057348;28;20141;-80
2022/03/25 12:41:26;;;;;;;28.75;18.55;;;17.80;42.60;;;;;;5057670;28;20075;-80
2022/03/25 12:44:01;;;;;;;24.42;18.92;;;17.90;41.90;;;;;;5074502;28;20089;-79
2022/03/25 12:46:29;;;;;;;28.27;19.55;;;18.00;42.90;;;;;;5073909;28;20051;-80